Time;durP1;ratioP1;P1;durP2;ratioP2;P2;SDS_P1;SDS_P2;PMS_P1;PMS_P2;Temp;Humidity;BMP_temperature;BMP_pressure;BME280_temperature;BME280_humidity;BME280_pressure;Samples;Min_cycle;Max_cycle;Signal;HPM_P1;HPM_P2
2023/05/11 00:01:05;;;;;;;4.85;3.10;;;;;;;;;;4979304;28;20030;-58
2023/05/11 00:03:31;;;;;;;4.68;3.22;;;;;;;;;;4979817;28;20500;-57
2023/05/11 00:05:57;;;;;;;3.72;3.38;;;;;;;;;;4979459;28;20039;-58
2023/05/11 00:08:22;;;;;;;4.25;3.08;;;;;;;;;;4984891;28;20034;-57
2023/05/11 00:10:48;;;;;;;3.70;3.40;;;;;;;;;;4984539;28;20042;-58
2023/05/11 00:13:13;;;;;;;3.90;3.60;;;;;;;;;;4984352;28;20447;-55
2023/05/11 00:15:39;;;;;;;3.70;3.40;;;;;;;;;;4983888;28;20058;-59
2023/05/11 00:18:04;;;;;;;4.05;3.65;;;;;;;;;;4985845;28;20490;-58
2023/05/11 00:20:29;;;;;;;4.57;3.38;;;;;;;;;;4982935;28;20396;-57
2023/05/11 00:22:55;;;;;;;4.13;3.72;;;;;;;;;;4983664;28;20137;-58
2023/05/11 00:25:20;;;;;;;4.97;3.53;;;;;;;;;;4984586;28;20439;-57
2023/05/11 00:27:46;;;;;;;4.07;3.67;;;;;;;;;;4986626;28;20119;-57
2023/05/11 00:30:13;;;;;;;4.00;3.70;;;;;;;;;;4983984;28;20046;-57
2023/05/11 00:32:39;;;;;;;5.75;3.92;;;;;;;;;;4983579;28;20944;-56
2023/05/11 00:35:05;;;;;;;3.85;3.58;;;;;;;;;;4983244;28;20042;-57
2023/05/11 00:37:30;;;;;;;4.07;3.70;;;;;;;;;;4983562;28;20494;-57
2023/05/11 00:39:56;;;;;;;4.97;3.25;;;;;;;;;;4979382;28;20054;-57
2023/05/11 00:42:21;;;;;;;4.07;3.78;;;;;;;;;;4982382;28;20030;-59
2023/05/11 00:44:46;;;;;;;4.10;3.45;;;;;;;;;;4983183;28;20066;-56
2023/05/11 00:47:12;;;;;;;3.45;3.25;;;;;;;;;;4988202;28;20035;-58
2023/05/11 00:49:38;;;;;;;9.02;4.03;;;;;;;;;;4983895;28;20082;-58
2023/05/11 00:52:03;;;;;;;6.13;3.70;;;;;;;;;;4985210;28;20547;-58
2023/05/11 00:54:29;;;;;;;3.95;3.60;;;;;;;;;;4982469;28;20281;-57
2023/05/11 00:56:55;;;;;;;5.70;3.40;;;;;;;;;;4973758;28;20582;-59
2023/05/11 00:59:20;;;;;;;3.45;3.15;;;;;;;;;;4983472;28;20110;-58
2023/05/11 01:01:46;;;;;;;3.75;3.35;;;;;;;;;;4980812;28;20046;-59
2023/05/11 01:04:11;;;;;;;2.95;2.65;;;;;;;;;;4979841;28;20041;-57
2023/05/11 01:06:46;;;;;;;3.35;3.05;;;;;;;;;;4982593;28;20720;-62
2023/05/11 01:09:14;;;;;;;;;;;;;;;;;;4982849;28;20114;-58
2023/05/11 01:11:40;;;;;;;3.60;3.28;;;;;;;;;;4998590;28;19937;-58
2023/05/11 01:14:19;;;;;;;3.50;3.20;;;;;;;;;;4983679;28;20488;-59
2023/05/11 01:16:48;;;;;;;4.05;3.50;;;;;;;;;;4988080;28;20350;-57
2023/05/11 01:19:19;;;;;;;4.22;3.03;;;;;;;;;;4988556;28;20047;-57
2023/05/11 01:21:46;;;;;;;4.45;3.65;;;;;;;;;;4983949;28;20437;-56
2023/05/11 01:24:30;;;;;;;3.90;3.53;;;;;;;;;;4980943;28;20034;-57
2023/05/11 01:27:11;;;;;;;4.10;3.70;;;;;;;;;;4980998;28;20100;-58
2023/05/11 01:29:46;;;;;;;3.85;3.45;;;;;;;;;;4982368;28;20037;-57
2023/05/11 01:32:11;;;;;;;;;;;;;;;;;;4989397;28;20045;-58
2023/05/11 01:34:38;;;;;;;3.85;3.55;;;;;;;;;;4983702;28;19922;-58
2023/05/11 01:37:08;;;;;;;3.97;3.50;;;;;;;;;;4982416;28;20034;-58
2023/05/11 01:39:36;;;;;;;4.78;3.17;;;;;;;;;;4982079;28;20038;-57
2023/05/11 01:42:08;;;;;;;3.88;3.25;;;;;;;;;;4983605;28;20041;-58
2023/05/11 01:44:35;;;;;;;4.20;3.80;;;;;;;;;;4988241;28;20500;-57
2023/05/11 01:47:02;;;;;;;3.83;3.53;;;;;;;;;;4983655;28;20039;-57
2023/05/11 01:49:28;;;;;;;3.50;3.30;;;;;;;;;;4982332;28;20808;-58
2023/05/11 01:51:54;;;;;;;3.60;3.15;;;;;;;;;;4983755;28;20386;-58
2023/05/11 01:54:20;;;;;;;4.38;3.40;;;;;;;;;;4981938;28;20631;-58
2023/05/11 01:56:47;;;;;;;4.15;3.47;;;;;;;;;;4982423;28;20042;-58
2023/05/11 01:59:13;;;;;;;5.00;3.55;;;;;;;;;;4982463;28;20493;-57
2023/05/11 02:01:39;;;;;;;3.97;3.63;;;;;;;;;;4979762;28;20057;-57
2023/05/11 02:04:06;;;;;;;3.53;3.22;;;;;;;;;;4987204;28;20034;-57
2023/05/11 02:06:33;;;;;;;3.88;3.47;;;;;;;;;;4983572;28;20053;-65
2023/05/11 02:09:00;;;;;;;4.72;3.17;;;;;;;;;;4981853;28;20030;-61
2023/05/11 02:11:25;;;;;;;5.40;3.90;;;;;;;;;;4971123;28;20076;-62
2023/05/11 02:13:54;;;;;;;3.75;3.45;;;;;;;;;;4979548;28;20046;-62
2023/05/11 02:16:20;;;;;;;4.72;3.22;;;;;;;;;;4996584;28;20069;-62
2023/05/11 02:18:47;;;;;;;5.65;4.63;;;;;;;;;;4972825;28;20053;-63
2023/05/11 02:21:14;;;;;;;4.43;4.03;;;;;;;;;;4970459;28;20388;-62
2023/05/11 02:23:40;;;;;;;3.65;3.33;;;;;;;;;;4981720;28;20129;-61
2023/05/11 02:26:07;;;;;;;5.55;3.70;;;;;;;;;;4980881;28;20532;-62
2023/05/11 02:28:32;;;;;;;3.75;2.90;;;;;;;;;;4982109;28;20030;-61
2023/05/11 02:31:00;;;;;;;3.63;3.20;;;;;;;;;;4982379;28;20607;-61
2023/05/11 02:33:31;;;;;;;4.10;3.67;;;;;;;;;;4980106;28;20178;-62
2023/05/11 02:35:58;;;;;;;3.95;3.42;;;;;;;;;;4981809;28;20056;-62
2023/05/11 02:38:31;;;;;;;4.10;3.72;;;;;;;;;;4995008;28;20133;-62
2023/05/11 02:40:59;;;;;;;4.40;4.00;;;;;;;;;;4970780;28;20598;-62
2023/05/11 02:43:27;;;;;;;3.70;3.40;;;;;;;;;;4979188;28;20042;-62
2023/05/11 02:46:10;;;;;;;5.05;3.33;;;;;;;;;;4981125;28;20346;-64
2023/05/11 02:48:40;;;;;;;5.53;3.50;;;;;;;;;;4970718;28;20411;-61
2023/05/11 02:51:08;;;;;;;3.70;3.40;;;;;;;;;;4986999;28;20424;-62
2023/05/11 02:53:40;;;;;;;3.08;2.78;;;;;;;;;;4981102;28;20456;-61
2023/05/11 02:56:07;;;;;;;4.22;3.58;;;;;;;;;;4979959;28;20030;-61
2023/05/11 02:58:33;;;;;;;3.78;3.45;;;;;;;;;;4985237;28;20042;-61
2023/05/11 03:01:11;;;;;;;3.95;3.38;;;;;;;;;;4978860;28;20035;-61
2023/05/11 03:03:37;;;;;;;3.40;3.10;;;;;;;;;;4986294;28;20517;-62
2023/05/11 03:06:03;;;;;;;3.80;3.20;;;;;;;;;;4978096;28;20037;-61
2023/05/11 03:08:28;;;;;;;3.63;2.90;;;;;;;;;;4979278;28;20082;-62
2023/05/11 03:10:54;;;;;;;3.53;2.97;;;;;;;;;;4979696;28;20397;-62
2023/05/11 03:13:21;;;;;;;5.05;3.45;;;;;;;;;;4979551;28;20049;-62
2023/05/11 03:15:47;;;;;;;4.05;3.75;;;;;;;;;;4977575;28;20030;-62
2023/05/11 03:18:13;;;;;;;3.53;3.17;;;;;;;;;;4979191;28;20065;-61
2023/05/11 03:20:40;;;;;;;3.83;3.53;;;;;;;;;;4971707;28;20100;-62
2023/05/11 03:23:06;;;;;;;3.30;2.80;;;;;;;;;;4986519;28;20034;-61
2023/05/11 03:25:33;;;;;;;5.07;3.13;;;;;;;;;;4981700;28;20069;-62
2023/05/11 03:27:59;;;;;;;3.63;3.33;;;;;;;;;;4979305;28;20538;-61
2023/05/11 03:30:27;;;;;;;4.18;3.40;;;;;;;;;;4982896;28;20567;-61
2023/05/11 03:32:56;;;;;;;4.18;3.63;;;;;;;;;;4984333;28;20623;-62
2023/05/11 03:35:24;;;;;;;4.20;3.20;;;;;;;;;;4984557;28;20458;-61
2023/05/11 03:37:51;;;;;;;4.15;3.67;;;;;;;;;;4982529;28;20046;-61
2023/05/11 03:40:18;;;;;;;7.43;4.90;;;;;;;;;;4979246;28;20030;-61
2023/05/11 03:42:52;;;;;;;5.30;3.17;;;;;;;;;;4977052;28;20450;-62
2023/05/11 03:45:18;;;;;;;2.97;2.75;;;;;;;;;;4980658;28;20574;-62
2023/05/11 03:47:45;;;;;;;3.80;3.15;;;;;;;;;;4980189;28;20041;-66
2023/05/11 03:50:11;;;;;;;3.58;3.35;;;;;;;;;;4970382;28;20082;-65
2023/05/11 03:52:36;;;;;;;4.03;3.40;;;;;;;;;;4984048;28;20038;-66
2023/05/11 03:55:02;;;;;;;3.72;3.42;;;;;;;;;;4983491;28;20120;-64
2023/05/11 03:57:29;;;;;;;5.50;2.83;;;;;;;;;;4980126;28;20064;-64
2023/05/11 03:59:54;;;;;;;3.10;2.75;;;;;;;;;;4985361;28;20137;-64
2023/05/11 04:02:23;;;;;;;4.25;3.35;;;;;;;;;;4980574;28;20490;-66
2023/05/11 04:04:48;;;;;;;4.20;3.65;;;;;;;;;;4983263;28;20042;-64
2023/05/11 04:07:14;;;;;;;3.47;3.15;;;;;;;;;;4980859;28;20096;-64
2023/05/11 04:09:39;;;;;;;3.58;2.90;;;;;;;;;;4996155;28;20379;-65
2023/05/11 04:12:05;;;;;;;4.88;3.25;;;;;;;;;;4979095;28;20027;-72
2023/05/11 04:14:30;;;;;;;3.38;3.10;;;;;;;;;;4978858;28;20108;-64
2023/05/11 04:16:56;;;;;;;3.35;3.03;;;;;;;;;;4976972;28;20090;-64
2023/05/11 04:19:21;;;;;;;3.40;3.10;;;;;;;;;;4978129;28;20166;-64
2023/05/11 04:21:47;;;;;;;3.50;3.20;;;;;;;;;;4974118;28;20443;-64
2023/05/11 04:24:12;;;;;;;3.28;2.97;;;;;;;;;;4978602;28;20538;-64
2023/05/11 04:26:38;;;;;;;3.58;3.03;;;;;;;;;;4978967;28;20482;-64
2023/05/11 04:29:03;;;;;;;3.35;3.05;;;;;;;;;;4976340;28;20124;-64
2023/05/11 04:31:29;;;;;;;4.13;3.03;;;;;;;;;;4977206;28;20405;-65
2023/05/11 04:33:55;;;;;;;6.78;3.47;;;;;;;;;;4968620;28;20062;-64
2023/05/11 04:36:21;;;;;;;3.13;2.83;;;;;;;;;;4978109;28;20047;-64
2023/05/11 04:38:47;;;;;;;4.80;3.42;;;;;;;;;;4974971;28;20062;-65
2023/05/11 04:41:13;;;;;;;5.90;3.72;;;;;;;;;;4977102;28;20525;-64
2023/05/11 04:43:39;;;;;;;3.30;2.95;;;;;;;;;;4983154;28;20387;-64
2023/05/11 04:46:07;;;;;;;5.97;3.38;;;;;;;;;;4987295;28;20082;-64
2023/05/11 04:48:33;;;;;;;3.17;2.97;;;;;;;;;;4978872;28;20137;-64
2023/05/11 04:50:58;;;;;;;3.50;3.05;;;;;;;;;;4978842;28;20034;-65
2023/05/11 04:53:28;;;;;;;7.07;2.80;;;;;;;;;;4998934;28;20531;-63
2023/05/11 04:55:54;;;;;;;5.03;3.20;;;;;;;;;;4971133;28;20038;-65
2023/05/11 04:58:20;;;;;;;6.45;3.67;;;;;;;;;;4980538;28;20038;-64
2023/05/11 05:00:47;;;;;;;4.85;3.53;;;;;;;;;;4986354;28;20052;-64
2023/05/11 05:03:12;;;;;;;6.05;3.67;;;;;;;;;;4982107;28;20411;-64
2023/05/11 05:05:38;;;;;;;4.63;3.60;;;;;;;;;;4974605;28;20057;-64
2023/05/11 05:08:03;;;;;;;4.00;3.42;;;;;;;;;;4998249;28;20092;-64
2023/05/11 05:10:29;;;;;;;3.97;3.58;;;;;;;;;;4986659;28;20294;-64
2023/05/11 05:12:54;;;;;;;4.13;3.30;;;;;;;;;;4984083;28;20031;-65
2023/05/11 05:15:20;;;;;;;4.28;3.53;;;;;;;;;;4982050;28;20035;-64
2023/05/11 05:17:46;;;;;;;3.50;3.20;;;;;;;;;;4983786;28;20209;-64
2023/05/11 05:20:12;;;;;;;4.05;3.67;;;;;;;;;;4969985;28;20034;-65
2023/05/11 05:22:38;;;;;;;4.72;3.55;;;;;;;;;;4983915;28;20065;-64
2023/05/11 05:25:03;;;;;;;4.75;3.22;;;;;;;;;;4977054;28;20490;-63
2023/05/11 05:27:30;;;;;;;6.15;3.70;;;;;;;;;;4996816;28;20038;-63
2023/05/11 05:29:55;;;;;;;4.25;3.40;;;;;;;;;;4983523;28;20137;-63
2023/05/11 05:32:23;;;;;;;3.42;3.05;;;;;;;;;;4980239;28;20077;-64
2023/05/11 05:34:49;;;;;;;4.97;3.60;;;;;;;;;;4997317;28;20133;-63
2023/05/11 05:37:15;;;;;;;5.10;4.18;;;;;;;;;;4980780;28;20109;-63
2023/05/11 05:39:40;;;;;;;4.50;3.78;;;;;;;;;;4984511;28;20117;-62
2023/05/11 05:42:06;;;;;;;5.10;3.97;;;;;;;;;;4981360;28;20616;-63
2023/05/11 05:44:31;;;;;;;4.22;3.22;;;;;;;;;;4996334;28;20159;-63
2023/05/11 05:46:57;;;;;;;4.15;3.75;;;;;;;;;;4986763;28;20639;-62
2023/05/11 05:49:25;;;;;;;9.32;3.88;;;;;;;;;;4980920;28;20476;-64
2023/05/11 05:51:51;;;;;;;3.97;3.47;;;;;;;;;;4986807;28;20541;-62
2023/05/11 05:54:17;;;;;;;4.30;3.67;;;;;;;;;;4968734;28;20030;-64
2023/05/11 05:56:44;;;;;;;5.15;3.88;;;;;;;;;;4984450;28;20050;-62
2023/05/11 05:59:09;;;;;;;4.80;3.47;;;;;;;;;;4982139;28;20459;-63
2023/05/11 06:01:40;;;;;;;4.35;3.80;;;;;;;;;;4986937;28;20042;-64
2023/05/11 06:04:05;;;;;;;5.63;3.92;;;;;;;;;;4982994;28;20085;-61
2023/05/11 06:06:31;;;;;;;7.43;4.47;;;;;;;;;;4984353;28;20030;-64
2023/05/11 06:08:56;;;;;;;4.78;3.83;;;;;;;;;;4982883;28;20433;-64
2023/05/11 06:11:21;;;;;;;5.20;4.70;;;;;;;;;;4983451;28;20041;-65
2023/05/11 06:13:49;;;;;;;5.72;4.13;;;;;;;;;;4977756;28;20050;-63
2023/05/11 06:16:14;;;;;;;4.75;4.03;;;;;;;;;;4980983;28;20100;-64
2023/05/11 06:18:40;;;;;;;4.50;4.10;;;;;;;;;;4984711;28;20531;-62
2023/05/11 06:21:06;;;;;;;4.90;4.35;;;;;;;;;;4986376;28;20744;-63
2023/05/11 06:23:32;;;;;;;5.65;3.50;;;;;;;;;;4980153;28;20038;-64
2023/05/11 06:25:57;;;;;;;4.55;3.72;;;;;;;;;;4979670;28;20041;-64
2023/05/11 06:28:24;;;;;;;5.18;4.10;;;;;;;;;;4984237;28;20382;-63
2023/05/11 06:30:57;;;;;;;6.97;4.20;;;;;;;;;;4987268;28;20062;-63
2023/05/11 06:33:24;;;;;;;5.47;4.53;;;;;;;;;;4994438;28;20388;-64
2023/05/11 06:35:51;;;;;;;4.47;4.07;;;;;;;;;;4973053;28;20130;-64
2023/05/11 06:38:16;;;;;;;4.80;4.40;;;;;;;;;;4983879;28;20074;-63
2023/05/11 06:40:43;;;;;;;5.70;4.53;;;;;;;;;;4978624;28;20046;-62
2023/05/11 06:43:09;;;;;;;7.93;4.57;;;;;;;;;;4980646;28;20152;-62
2023/05/11 06:45:45;;;;;;;6.00;4.70;;;;;;;;;;4955584;28;20035;-62
2023/05/11 06:48:11;;;;;;;10.93;4.97;;;;;;;;;;4977812;28;20046;-62
2023/05/11 06:50:36;;;;;;;5.65;4.50;;;;;;;;;;4981474;28;20031;-61
2023/05/11 06:53:01;;;;;;;5.05;4.43;;;;;;;;;;4982312;28;20533;-62
2023/05/11 06:55:28;;;;;;;5.25;4.75;;;;;;;;;;4980576;28;20504;-61
2023/05/11 06:57:53;;;;;;;5.07;4.55;;;;;;;;;;4979628;28;20604;-64
2023/05/11 07:00:18;;;;;;;5.15;4.55;;;;;;;;;;4981930;28;20034;-63
2023/05/11 07:02:44;;;;;;;5.28;4.43;;;;;;;;;;4981333;28;20054;-64
2023/05/11 07:05:11;;;;;;;4.80;4.32;;;;;;;;;;4980999;28;21030;-62
2023/05/11 07:07:36;;;;;;;6.60;4.20;;;;;;;;;;4982096;28;20069;-63
2023/05/11 07:10:01;;;;;;;5.90;4.72;;;;;;;;;;4980947;28;20039;-63
2023/05/11 07:12:27;;;;;;;6.47;5.20;;;;;;;;;;4982147;28;20125;-62
2023/05/11 07:14:52;;;;;;;5.32;4.90;;;;;;;;;;4980072;28;20038;-61
2023/05/11 07:17:17;;;;;;;5.03;4.05;;;;;;;;;;4980343;28;20062;-63
2023/05/11 07:19:43;;;;;;;4.43;3.90;;;;;;;;;;4980371;28;20140;-62
2023/05/11 07:22:08;;;;;;;4.53;4.22;;;;;;;;;;4980963;28;20041;-63
2023/05/11 07:24:34;;;;;;;5.82;4.50;;;;;;;;;;4979487;28;20394;-62
2023/05/11 07:27:00;;;;;;;5.43;4.20;;;;;;;;;;4980526;28;20086;-64
2023/05/11 07:29:26;;;;;;;5.22;3.78;;;;;;;;;;4980269;28;20039;-63
2023/05/11 07:31:51;;;;;;;6.60;4.38;;;;;;;;;;4979582;28;20111;-63
2023/05/11 07:34:17;;;;;;;7.70;4.45;;;;;;;;;;4980853;28;20588;-63
2023/05/11 07:36:42;;;;;;;5.18;3.78;;;;;;;;;;4984495;28;20027;-62
2023/05/11 07:39:09;;;;;;;5.53;4.20;;;;;;;;;;4981481;28;20429;-62
2023/05/11 07:41:34;;;;;;;4.18;3.88;;;;;;;;;;4979454;28;20550;-62
2023/05/11 07:44:00;;;;;;;5.25;4.05;;;;;;;;;;4979819;28;20289;-62
2023/05/11 07:46:26;;;;;;;5.47;4.30;;;;;;;;;;4979277;28;21035;-63
2023/05/11 07:48:51;;;;;;;4.60;4.20;;;;;;;;;;4980273;28;20578;-63
2023/05/11 07:51:17;;;;;;;4.95;3.85;;;;;;;;;;4979270;28;20035;-61
2023/05/11 07:53:42;;;;;;;4.80;3.70;;;;;;;;;;4978693;28;20074;-59
2023/05/11 07:56:09;;;;;;;4.75;4.22;;;;;;;;;;4978931;28;20188;-59
2023/05/11 07:58:34;;;;;;;4.35;3.95;;;;;;;;;;4985437;28;20095;-59
2023/05/11 08:01:00;;;;;;;5.18;4.38;;;;;;;;;;4979474;28;20062;-61
2023/05/11 08:03:25;;;;;;;5.13;4.15;;;;;;;;;;4979838;28;20565;-60
2023/05/11 08:05:51;;;;;;;7.22;4.35;;;;;;;;;;4981042;28;20439;-60
2023/05/11 08:08:17;;;;;;;4.35;3.95;;;;;;;;;;4978465;28;20443;-60
2023/05/11 08:10:42;;;;;;;6.30;4.00;;;;;;;;;;4980650;28;20046;-61
2023/05/11 08:13:07;;;;;;;3.63;3.38;;;;;;;;;;4980887;28;20043;-60
2023/05/11 08:15:33;;;;;;;4.05;3.72;;;;;;;;;;4979448;28;20752;-59
2023/05/11 08:17:59;;;;;;;4.35;3.95;;;;;;;;;;4978452;28;20124;-59
2023/05/11 08:20:24;;;;;;;3.90;3.58;;;;;;;;;;4979808;28;20556;-59
2023/05/11 08:22:50;;;;;;;4.43;3.88;;;;;;;;;;4978137;28;20073;-60
2023/05/11 08:25:15;;;;;;;5.03;4.47;;;;;;;;;;4980209;28;20038;-60
2023/05/11 08:27:41;;;;;;;3.97;3.67;;;;;;;;;;4984792;28;20056;-60
2023/05/11 08:30:08;;;;;;;4.70;4.30;;;;;;;;;;4984114;28;20120;-60
2023/05/11 08:32:34;;;;;;;6.00;3.95;;;;;;;;;;4983703;28;20039;-60
2023/05/11 08:35:00;;;;;;;4.35;3.88;;;;;;;;;;4983448;28;20042;-60
2023/05/11 08:37:25;;;;;;;4.93;4.20;;;;;;;;;;4985657;28;20524;-60
2023/05/11 08:39:51;;;;;;;5.22;4.38;;;;;;;;;;4984351;28;20085;-60
2023/05/11 08:42:17;;;;;;;3.90;3.60;;;;;;;;;;4981850;28;20080;-61
2023/05/11 08:44:43;;;;;;;5.07;4.00;;;;;;;;;;4981610;28;20406;-60
2023/05/11 08:47:09;;;;;;;5.15;4.35;;;;;;;;;;4981455;28;20026;-60
2023/05/11 08:49:34;;;;;;;4.18;3.78;;;;;;;;;;4984101;28;20046;-61
2023/05/11 08:52:02;;;;;;;6.75;3.90;;;;;;;;;;4984720;28;20042;-60
2023/05/11 08:54:27;;;;;;;4.60;4.30;;;;;;;;;;4984550;28;20088;-60
2023/05/11 08:56:53;;;;;;;5.32;4.05;;;;;;;;;;4982683;28;20035;-60
2023/05/11 08:59:19;;;;;;;5.88;3.50;;;;;;;;;;4983022;28;20089;-59
2023/05/11 09:01:44;;;;;;;8.23;4.10;;;;;;;;;;4983951;28;20042;-60
2023/05/11 09:04:10;;;;;;;5.20;3.75;;;;;;;;;;4981795;28;20030;-59
2023/05/11 09:06:37;;;;;;;6.57;3.90;;;;;;;;;;4982450;28;20466;-61
2023/05/11 09:09:02;;;;;;;5.10;4.70;;;;;;;;;;4982111;28;20041;-60
2023/05/11 09:11:28;;;;;;;5.00;4.57;;;;;;;;;;4983819;28;20407;-60
2023/05/11 09:13:53;;;;;;;4.50;4.10;;;;;;;;;;4982824;28;20544;-61
2023/05/11 09:16:19;;;;;;;4.30;3.90;;;;;;;;;;4981095;28;20034;-61
2023/05/11 09:18:45;;;;;;;4.13;3.72;;;;;;;;;;4981109;28;20070;-60
2023/05/11 09:21:11;;;;;;;3.97;3.65;;;;;;;;;;4984433;28;20478;-61
2023/05/11 09:23:36;;;;;;;4.65;3.92;;;;;;;;;;4981364;28;20041;-61
2023/05/11 09:26:02;;;;;;;7.35;4.00;;;;;;;;;;4986161;28;20346;-61
2023/05/11 09:28:27;;;;;;;5.43;4.03;;;;;;;;;;4987722;28;20061;-60
2023/05/11 09:30:53;;;;;;;6.72;4.20;;;;;;;;;;4982599;28;20257;-60
2023/05/11 09:33:22;;;;;;;5.50;4.00;;;;;;;;;;4981707;28;20034;-58
2023/05/11 09:35:48;;;;;;;5.18;4.78;;;;;;;;;;4982323;28;20153;-60
2023/05/11 09:38:15;;;;;;;7.45;3.80;;;;;;;;;;4986585;28;20037;-60
2023/05/11 09:40:45;;;;;;;3.95;3.63;;;;;;;;;;4983370;28;20397;-61
2023/05/11 09:43:18;;;;;;;3.90;3.22;;;;;;;;;;4979862;28;20485;-60
2023/05/11 09:45:45;;;;;;;5.10;3.90;;;;;;;;;;4986217;28;20267;-60
2023/05/11 09:48:13;;;;;;;3.20;2.97;;;;;;;;;;4981033;28;20297;-60
2023/05/11 09:50:39;;;;;;;4.13;3.58;;;;;;;;;;4980882;28;20043;-60
2023/05/11 09:53:04;;;;;;;4.82;4.32;;;;;;;;;;4979756;28;20497;-59
2023/05/11 09:55:30;;;;;;;4.25;3.85;;;;;;;;;;4978160;28;20042;-60
2023/05/11 09:57:57;;;;;;;3.92;3.58;;;;;;;;;;4980817;28;20491;-59
2023/05/11 10:00:24;;;;;;;3.83;3.53;;;;;;;;;;4983223;28;20501;-60
2023/05/11 10:03:00;;;;;;;3.72;3.17;;;;;;;;;;4982494;28;20080;-61
2023/05/11 10:05:26;;;;;;;3.30;3.10;;;;;;;;;;4980641;28;20177;-60
2023/05/11 10:07:58;;;;;;;8.52;3.65;;;;;;;;;;4982089;28;20038;-59
2023/05/11 10:10:28;;;;;;;4.43;4.03;;;;;;;;;;4979509;28;20460;-59
2023/05/11 10:12:57;;;;;;;3.95;3.42;;;;;;;;;;4982608;28;20359;-61
2023/05/11 10:15:27;;;;;;;5.53;4.32;;;;;;;;;;4983182;28;20039;-61
2023/05/11 10:17:56;;;;;;;114.35;27.23;;;;;;;;;;4981083;28;20573;-61
2023/05/11 10:20:22;;;;;;;89.53;27.83;;;;;;;;;;4980832;28;20413;-61
2023/05/11 10:22:49;;;;;;;37.25;13.98;;;;;;;;;;4983337;28;20057;-61
2023/05/11 10:25:15;;;;;;;10.27;6.28;;;;;;;;;;4983107;28;20062;-62
2023/05/11 10:27:41;;;;;;;10.25;6.05;;;;;;;;;;4986999;28;20101;-62
2023/05/11 10:30:09;;;;;;;7.75;4.35;;;;;;;;;;4983093;28;20038;-62
2023/05/11 10:32:38;;;;;;;4.07;3.67;;;;;;;;;;4980989;28;20073;-61
2023/05/11 10:35:04;;;;;;;4.63;3.40;;;;;;;;;;4979085;28;20030;-62
2023/05/11 10:37:31;;;;;;;4.05;3.33;;;;;;;;;;4981910;28;20042;-62
2023/05/11 10:39:56;;;;;;;4.63;3.10;;;;;;;;;;4982219;28;20082;-62
2023/05/11 10:42:37;;;;;;;4.38;3.78;;;;;;;;;;4981010;28;20130;-62
2023/05/11 10:45:21;;;;;;;6.45;4.00;;;;;;;;;;4982791;28;20062;-62
2023/05/11 10:47:50;;;;;;;3.33;3.13;;;;;;;;;;4982274;28;20512;-62
2023/05/11 10:50:22;;;;;;;453.73;180.70;;;;;;;;;;4980339;28;20042;-61
2023/05/11 10:53:02;;;;;;;149.35;59.70;;;;;;;;;;4983468;28;20042;-61
2023/05/11 10:55:48;;;;;;;45.40;18.90;;;;;;;;;;4982236;28;20038;-62
2023/05/11 10:58:30;;;;;;;34.08;13.57;;;;;;;;;;4981132;28;20138;-62
2023/05/11 11:01:09;;;;;;;10.60;6.90;;;;;;;;;;4985280;28;20600;-61
2023/05/11 11:03:35;;;;;;;18.58;8.30;;;;;;;;;;4983376;28;20502;-61
2023/05/11 11:06:01;;;;;;;5.97;3.88;;;;;;;;;;4981478;28;20034;-61
2023/05/11 11:08:27;;;;;;;2.95;2.75;;;;;;;;;;4980309;28;20058;-60
2023/05/11 11:10:52;;;;;;;4.78;3.10;;;;;;;;;;4981614;28;20065;-61
2023/05/11 11:13:19;;;;;;;3.45;3.15;;;;;;;;;;4977754;28;20185;-60
2023/05/11 11:15:53;;;;;;;4.15;2.80;;;;;;;;;;4980037;28;20046;-60
2023/05/11 11:18:21;;;;;;;2.95;2.75;;;;;;;;;;4979498;28;20053;-60
2023/05/11 11:20:48;;;;;;;6.22;2.80;;;;;;;;;;4980381;28;20336;-60
2023/05/11 11:23:32;;;;;;;5.35;3.70;;;;;;;;;;4976953;28;20378;-61
2023/05/11 11:25:57;;;;;;;3.25;2.95;;;;;;;;;;4980704;28;20038;-60
2023/05/11 11:28:23;;;;;;;3.63;2.83;;;;;;;;;;4980582;28;20052;-60
2023/05/11 11:31:08;;;;;;;3.22;2.90;;;;;;;;;;4981031;28;20042;-60
2023/05/11 11:33:34;;;;;;;4.07;2.97;;;;;;;;;;4979320;28;20090;-60
2023/05/11 11:36:00;;;;;;;3.20;2.90;;;;;;;;;;4980839;28;20625;-59
2023/05/11 11:38:25;;;;;;;3.72;3.25;;;;;;;;;;4978681;28;20038;-61
2023/05/11 11:40:51;;;;;;;2.63;2.53;;;;;;;;;;4982984;28;20061;-61
2023/05/11 11:43:18;;;;;;;3.40;3.00;;;;;;;;;;4981892;28;20050;-61
2023/05/11 11:45:54;;;;;;;6.00;3.00;;;;;;;;;;4980149;28;20038;-61
2023/05/11 11:48:22;;;;;;;4.22;3.47;;;;;;;;;;4979528;28;20030;-61
2023/05/11 11:50:48;;;;;;;4.88;2.88;;;;;;;;;;4981853;28;20477;-61
2023/05/11 11:53:32;;;;;;;3.13;2.85;;;;;;;;;;4982847;28;20042;-60
2023/05/11 11:55:58;;;;;;;3.05;2.88;;;;;;;;;;4979323;28;20567;-61
2023/05/11 11:58:45;;;;;;;3.08;2.88;;;;;;;;;;4979549;28;20420;-61
2023/05/11 12:01:19;;;;;;;3.08;2.88;;;;;;;;;;4979272;28;20041;-60
2023/05/11 12:03:45;;;;;;;5.55;3.45;;;;;;;;;;4983622;28;20508;-61
2023/05/11 12:06:11;;;;;;;5.13;3.20;;;;;;;;;;4985639;28;20466;-61
2023/05/11 12:08:37;;;;;;;2.85;2.65;;;;;;;;;;4982254;28;20094;-61
2023/05/11 12:11:03;;;;;;;3.22;2.83;;;;;;;;;;4981859;28;20532;-61
2023/05/11 12:13:29;;;;;;;3.80;2.97;;;;;;;;;;4982623;28;20420;-60
2023/05/11 12:16:14;;;;;;;3.70;3.40;;;;;;;;;;4984491;28;20046;-60
2023/05/11 12:18:40;;;;;;;4.28;2.92;;;;;;;;;;4982372;28;20782;-60
2023/05/11 12:21:05;;;;;;;3.95;3.30;;;;;;;;;;4982264;28;20108;-61
2023/05/11 12:23:31;;;;;;;3.33;2.78;;;;;;;;;;4985218;28;20482;-61
2023/05/11 12:26:06;;;;;;;5.10;2.95;;;;;;;;;;4982065;28;20106;-62
2023/05/11 12:28:31;;;;;;;3.60;3.33;;;;;;;;;;4984014;28;20064;-63
2023/05/11 12:30:57;;;;;;;5.28;2.50;;;;;;;;;;4983535;28;20030;-61
2023/05/11 12:33:24;;;;;;;3.60;3.30;;;;;;;;;;4981957;28;20041;-64
2023/05/11 12:35:54;;;;;;;4.10;3.05;;;;;;;;;;4982379;28;20172;-62
2023/05/11 12:38:20;;;;;;;3.88;3.13;;;;;;;;;;4983604;28;20111;-61
2023/05/11 12:40:49;;;;;;;4.25;2.95;;;;;;;;;;4984651;28;20463;-62
2023/05/11 12:43:18;;;;;;;4.15;2.63;;;;;;;;;;4985519;28;20493;-62
2023/05/11 12:45:45;;;;;;;3.63;3.33;;;;;;;;;;4983200;28;20068;-62
2023/05/11 12:48:11;;;;;;;3.25;3.05;;;;;;;;;;4984192;28;20053;-62
2023/05/11 12:50:43;;;;;;;3.08;2.67;;;;;;;;;;4982966;28;20089;-62
2023/05/11 12:53:12;;;;;;;3.88;3.05;;;;;;;;;;4982774;28;20473;-62
2023/05/11 12:55:38;;;;;;;6.47;3.53;;;;;;;;;;4981380;28;20564;-61
2023/05/11 12:58:14;;;;;;;4.22;2.75;;;;;;;;;;4984107;28;20522;-61
2023/05/11 13:00:53;;;;;;;3.55;3.17;;;;;;;;;;4983254;28;20246;-61
2023/05/11 13:03:22;;;;;;;2.83;2.60;;;;;;;;;;4985392;28;20050;-62
2023/05/11 13:05:47;;;;;;;3.40;2.83;;;;;;;;;;4982407;28;20822;-62
2023/05/11 13:08:15;;;;;;;3.25;3.05;;;;;;;;;;4983545;28;20496;-62
2023/05/11 13:10:40;;;;;;;3.55;2.42;;;;;;;;;;4984187;28;20068;-60
2023/05/11 13:13:06;;;;;;;3.50;2.90;;;;;;;;;;4982929;28;20034;-60
2023/05/11 13:15:32;;;;;;;4.32;3.55;;;;;;;;;;4981237;28;20047;-60
2023/05/11 13:17:58;;;;;;;4.32;3.03;;;;;;;;;;4983322;28;20550;-60
2023/05/11 13:20:26;;;;;;;3.20;3.00;;;;;;;;;;4989322;28;20477;-60
2023/05/11 13:23:21;;;;;;;3.25;3.05;;;;;;;;;;4983503;28;20030;-60
2023/05/11 13:25:50;;;;;;;2.65;2.45;;;;;;;;;;4973835;28;20046;-60
2023/05/11 13:28:16;;;;;;;5.10;3.08;;;;;;;;;;4981927;28;20042;-60
2023/05/11 13:30:42;;;;;;;2.88;2.67;;;;;;;;;;4980577;28;20396;-60
2023/05/11 13:33:07;;;;;;;4.40;2.75;;;;;;;;;;4982976;28;20033;-60
2023/05/11 13:35:40;;;;;;;3.17;2.85;;;;;;;;;;4982710;28;20401;-60
2023/05/11 13:38:06;;;;;;;2.63;2.42;;;;;;;;;;4982797;28;20121;-60
2023/05/11 13:40:31;;;;;;;3.40;2.35;;;;;;;;;;4978533;28;20478;-60
2023/05/11 13:42:57;;;;;;;3.60;3.30;;;;;;;;;;4980353;28;20092;-60
2023/05/11 13:45:22;;;;;;;3.65;2.90;;;;;;;;;;4982220;28;20548;-60
2023/05/11 13:47:48;;;;;;;2.85;2.55;;;;;;;;;;4981561;28;20401;-59
2023/05/11 13:50:14;;;;;;;5.53;3.10;;;;;;;;;;4980842;28;20466;-60
2023/05/11 13:52:40;;;;;;;6.10;2.65;;;;;;;;;;4982314;28;20030;-59
2023/05/11 13:55:06;;;;;;;4.68;2.55;;;;;;;;;;4982448;28;20034;-61
2023/05/11 13:57:31;;;;;;;5.03;3.10;;;;;;;;;;4981650;28;20524;-60
2023/05/11 13:59:57;;;;;;;2.60;2.40;;;;;;;;;;4981347;28;20468;-60
2023/05/11 14:02:22;;;;;;;2.10;2.00;;;;;;;;;;4971415;28;20180;-61
2023/05/11 14:04:48;;;;;;;3.30;3.10;;;;;;;;;;4981664;28;20041;-61
2023/05/11 14:07:14;;;;;;;3.63;3.35;;;;;;;;;;4982831;28;20481;-66
2023/05/11 14:09:40;;;;;;;3.92;3.50;;;;;;;;;;4979242;28;20496;-61
2023/05/11 14:12:05;;;;;;;4.55;3.50;;;;;;;;;;4978920;28;20070;-61
2023/05/11 14:14:31;;;;;;;3.65;2.67;;;;;;;;;;4980901;28;20066;-62
2023/05/11 14:16:57;;;;;;;3.83;3.53;;;;;;;;;;4980495;28;20055;-61
2023/05/11 14:19:22;;;;;;;6.15;3.03;;;;;;;;;;4981633;28;20037;-63
2023/05/11 14:21:48;;;;;;;3.53;3.33;;;;;;;;;;4979672;28;20141;-60
2023/05/11 14:24:13;;;;;;;5.25;3.47;;;;;;;;;;4979372;28;20542;-60
2023/05/11 14:26:39;;;;;;;3.78;2.78;;;;;;;;;;4982035;28;20061;-61
2023/05/11 14:29:05;;;;;;;3.38;3.17;;;;;;;;;;4979492;28;20087;-60
2023/05/11 14:31:30;;;;;;;3.60;3.33;;;;;;;;;;4979618;28;20050;-61
2023/05/11 14:33:56;;;;;;;4.20;2.42;;;;;;;;;;4980255;28;20118;-61
2023/05/11 14:36:21;;;;;;;5.15;2.92;;;;;;;;;;4979058;28;20041;-61
2023/05/11 14:38:47;;;;;;;3.53;3.22;;;;;;;;;;4980762;28;20034;-61
2023/05/11 14:41:13;;;;;;;2.92;2.72;;;;;;;;;;4980840;28;20077;-61
2023/05/11 14:43:38;;;;;;;4.65;3.33;;;;;;;;;;4983449;28;20488;-62